Wetterdaten: Woche 09.01.17 - 15.01.17 (KW2)
Datum Zeit Temp. Aussen Temp. o. S. +5cm Feuchte Auss BlattFeu 1 Luftdruck Regen Sonnenschein Regendauer Solar Windben Empfang
09.01.2017 00:00 1,9 C 2,2 C 0,6 C 99 % 15 lf 1029,8 hPa 0,0 l/m 0,00 h 0,00 h 0 W/m 4,1 km/h (1 Bft) 94,89 %
09.01.2017 01:00 1,9 C 2,2 C 0,6 C 99 % 15 lf 1029,3 hPa 0,0 l/m 0,00 h 0,00 h 0 W/m 4,7 km/h (1 Bft) 94,89 %
09.01.2017 02:00 1,9 C 2,4 C 0,7 C 99 % 15 lf 1028,9 hPa 0,0 l/m 0,00 h 0,00 h 0 W/m 4,0 km/h (1 Bft) 97,22 %
09.01.2017 03:00 2,0 C 2,2 C 0,8 C 99 % 15 lf 1028,5 hPa 0,0 l/m 0,00 h 0,00 h 0 W/m 6,7 km/h (2 Bft) 95,89 %
09.01.2017 04:00 1,9 C 2,2 C 0,6 C 99 % 15 lf 1028,2 hPa 0,0 l/m 0,00 h 0,00 h 0 W/m 5,5 km/h (1 Bft) 96,51 %
09.01.2017 05:00 1,7 C 2,2 C 0,6 C 99 % 15 lf 1027,6 hPa 0,0 l/m 0,00 h 0,00 h 0 W/m 8,5 km/h (2 Bft) 94,63 %
09.01.2017 06:00 1,6 C 2,2 C 0,6 C 99 % 13 lf 1027,0 hPa 0,0 l/m 0,00 h 0,00 h 0 W/m 8,8 km/h (2 Bft) 95,26 %
09.01.2017 07:00 1,6 C 2,2 C 0,6 C 99 % 4 lf 1026,4 hPa 0,0 l/m 0,00 h 0,00 h 0 W/m 9,7 km/h (2 Bft) 96,29 %
09.01.2017 08:00 1,7 C 2,2 C 0,7 C 99 % 2 lf 1025,8 hPa 0,0 l/m 0,00 h 0,00 h 5 W/m 8,7 km/h (2 Bft) 96,59 %
09.01.2017 09:00 1,9 C 2,8 C 1,2 C 99 % 1 lf 1025,5 hPa 0,0 l/m 0,00 h 0,00 h 14 W/m 11,5 km/h (2 Bft) 95,69 %
09.01.2017 10:00 2,2 C 3,0 C 1,9 C 99 % 1 lf 1025,1 hPa 0,0 l/m 0,00 h 0,00 h 39 W/m 11,2 km/h (2 Bft) 94,86 %
09.01.2017 11:00 2,6 C 3,9 C 2,9 C 99 % 0 lf 1024,2 hPa 0,0 l/m 0,00 h 0,00 h 76 W/m 10,6 km/h (2 Bft) 96,39 %
09.01.2017 12:00 3,6 C 5,7 C 4,5 C 99 % 0 lf 1023,0 hPa 0,0 l/m 0,37 h 0,00 h 138 W/m 11,4 km/h (2 Bft) 97,57 %
09.01.2017 13:00 4,6 C 5,9 C 4,7 C 99 % 0 lf 1021,9 hPa 0,0 l/m 0,00 h 0,13 h 91 W/m 12,1 km/h (2 Bft) 94,08 %
09.01.2017 14:00 5,3 C 6,6 C 5,0 C 95 % 0 lf 1020,8 hPa 0,0 l/m 0,43 h 0,00 h 104 W/m 14,4 km/h (3 Bft) 97,03 %
09.01.2017 15:00 5,6 C 6,2 C 4,7 C 91 % 0 lf 1019,7 hPa 0,0 l/m 0,10 h 0,10 h 48 W/m 13,8 km/h (3 Bft) 96,66 %
09.01.2017 16:00 5,5 C 6,0 C 4,3 C 91 % 0 lf 1018,8 hPa 0,0 l/m 0,00 h 0,03 h 13 W/m 12,0 km/h (2 Bft) 95,39 %
09.01.2017 17:00 5,5 C 5,5 C 3,8 C 92 % 0 lf 1017,9 hPa 0,0 l/m 0,00 h 0,20 h 0 W/m 13,7 km/h (3 Bft) 96,05 %
09.01.2017 18:00 4,8 C 4,9 C 3,3 C 93 % 1 lf 1016,9 hPa 0,0 l/m 0,00 h 0,20 h 0 W/m 9,8 km/h (2 Bft) 96,15 %
09.01.2017 19:00 4,6 C 4,4 C 2,9 C 95 % 5 lf 1016,0 hPa 0,2 l/m 0,00 h 0,47 h 0 W/m 10,8 km/h (2 Bft) 94,70 %
09.01.2017 20:00 4,2 C 3,7 C 2,5 C 95 % 2 lf 1015,1 hPa 0,2 l/m 0,00 h 0,50 h 0 W/m 12,0 km/h (2 Bft) 98,14 %
09.01.2017 21:00 3,5 C 3,3 C 2,2 C 96 % 11 lf 1013,9 hPa 0,0 l/m 0,00 h 0,63 h 0 W/m 15,2 km/h (3 Bft) 95,16 %
09.01.2017 22:00 3,4 C 3,3 C 2,2 C 96 % 10 lf 1012,8 hPa 0,2 l/m 0,00 h 0,93 h 0 W/m 12,6 km/h (3 Bft) 94,42 %
09.01.2017 23:00 3,3 C 3,3 C 2,2 C 97 % 8 lf 1011,6 hPa 0,6 l/m 0,00 h 1,00 h 0 W/m 12,3 km/h (3 Bft) 98,23 %
10.01.2017 00:00 3,2 C 3,3 C 2,0 C 97 % 6 lf 1010,4 hPa 0,8 l/m 0,00 h 1,00 h 0 W/m 13,7 km/h (3 Bft) 94,80 %
10.01.2017 01:00 3,5 C 3,5 C 2,2 C 98 % 11 lf 1009,1 hPa 0,8 l/m 0,00 h 1,00 h 0 W/m 17,1 km/h (3 Bft) 96,94 %
10.01.2017 02:00 3,2 C 3,3 C 1,9 C 98 % 10 lf 1008,2 hPa 0,8 l/m 0,00 h 1,00 h 0 W/m 17,7 km/h (3 Bft) 95,16 %
10.01.2017 03:00 2,9 C 2,8 C 1,7 C 98 % 15 lf 1007,1 hPa 0,8 l/m 0,00 h 1,00 h 0 W/m 21,5 km/h (4 Bft) 96,22 %
10.01.2017 04:00 2,8 C 2,9 C 1,7 C 98 % 15 lf 1006,6 hPa 1,6 l/m 0,00 h 1,00 h 0 W/m 18,4 km/h (3 Bft) 96,58 %
10.01.2017 05:00 3,0 C 3,3 C 1,7 C 98 % 15 lf 1006,2 hPa 0,4 l/m 0,00 h 0,37 h 0 W/m 16,7 km/h (3 Bft) 96,51 %
10.01.2017 06:00 3,3 C 3,6 C 2,2 C 98 % 15 lf 1006,3 hPa 0,0 l/m 0,00 h 0,20 h 0 W/m 7,8 km/h (2 Bft) 95,23 %
10.01.2017 07:00 3,8 C 3,9 C 2,4 C 99 % 15 lf 1006,6 hPa 0,0 l/m 0,00 h 0,00 h 0 W/m 9,0 km/h (2 Bft) 95,59 %
10.01.2017 08:00 3,7 C 3,6 C 1,8 C 99 % 15 lf 1007,0 hPa 0,0 l/m 0,00 h 0,00 h 5 W/m 6,4 km/h (2 Bft) 96,87 %
10.01.2017 09:00 3,4 C 3,6 C 1,8 C 99 % 15 lf 1007,6 hPa 0,0 l/m 0,00 h 0,00 h 20 W/m 8,7 km/h (2 Bft) 96,52 %
10.01.2017 10:00 3,9 C 5,3 C 3,4 C 99 % 11 lf 1007,9 hPa 0,0 l/m 0,67 h 0,00 h 133 W/m 9,7 km/h (2 Bft) 95,30 %
10.01.2017 11:00 4,5 C 8,5 C 3,9 C 99 % 0 lf 1008,1 hPa 0,0 l/m 0,93 h 0,00 h 204 W/m 13,0 km/h (3 Bft) 95,93 %
10.01.2017 12:00 5,1 C 7,1 C 4,3 C 99 % 0 lf 1008,1 hPa 0,0 l/m 0,13 h 0,00 h 96 W/m 12,3 km/h (3 Bft) 96,53 %
10.01.2017 13:00 5,2 C 6,4 C 4,7 C 98 % 0 lf 1008,3 hPa 0,0 l/m 0,00 h 0,00 h 73 W/m 8,2 km/h (2 Bft) 94,99 %
10.01.2017 14:00 5,1 C 6,4 C 4,4 C 97 % 0 lf 1008,6 hPa 0,0 l/m 0,00 h 0,00 h 80 W/m 9,8 km/h (2 Bft) 95,05 %
10.01.2017 15:00 5,1 C 5,7 C 4,0 C 94 % 0 lf 1009,1 hPa 0,0 l/m 0,00 h 0,00 h 29 W/m 6,0 km/h (2 Bft) 96,82 %
10.01.2017 16:00 5,1 C 5,6 C 3,6 C 94 % 0 lf 1009,7 hPa 0,0 l/m 0,00 h 0,00 h 9 W/m 5,9 km/h (2 Bft) 96,15 %
10.01.2017 17:00 5,0 C 5,2 C 3,3 C 93 % 0 lf 1010,5 hPa 0,0 l/m 0,00 h 0,00 h 0 W/m 7,4 km/h (2 Bft) 95,21 %
10.01.2017 18:00 4,9 C 5,4 C 3,4 C 93 % 4 lf 1010,9 hPa 0,0 l/m 0,00 h 0,20 h 0 W/m 9,5 km/h (2 Bft) 95,76 %
10.01.2017 19:00 4,9 C 5,0 C 3,3 C 94 % 3 lf 1011,3 hPa 0,0 l/m 0,00 h 0,00 h 0 W/m 9,5 km/h (2 Bft) 94,90 %
10.01.2017 20:00 4,7 C 4,5 C 2,9 C 94 % 0 lf 1011,3 hPa 0,0 l/m 0,00 h 0,00 h 0 W/m 6,3 km/h (2 Bft) 99,18 %
10.01.2017 21:00 4,5 C 4,9 C 3,3 C 95 % 0 lf 1011,5 hPa 0,0 l/m 0,00 h 0,00 h 0 W/m 7,6 km/h (2 Bft) 94,65 %
10.01.2017 22:00 4,5 C 4,7 C 3,1 C 96 % 0 lf 1011,7 hPa 0,0 l/m 0,00 h 0,00 h 0 W/m 8,7 km/h (2 Bft) 95,57 %
10.01.2017 23:00 4,3 C 4,4 C 3,0 C 96 % 0 lf 1011,9 hPa 0,0 l/m 0,00 h 0,00 h 0 W/m 9,9 km/h (2 Bft) 97,42 %
11.01.2017 00:00 4,4 C 4,5 C 3,1 C 96 % 0 lf 1011,7 hPa 0,0 l/m 0,00 h 0,00 h 0 W/m 8,8 km/h (2 Bft) 94,66 %
11.01.2017 01:00 4,2 C 4,4 C 2,8 C 96 % 0 lf 1011,5 hPa 0,0 l/m 0,00 h 0,00 h 0 W/m 8,2 km/h (2 Bft) 96,14 %
11.01.2017 02:00 4,4 C 4,9 C 3,3 C 97 % 0 lf 1011,1 hPa 0,0 l/m 0,00 h 0,00 h 0 W/m 12,4 km/h (3 Bft) 96,38 %
11.01.2017 03:00 4,8 C 5,0 C 3,5 C 97 % 0 lf 1010,5 hPa 0,0 l/m 0,00 h 0,00 h 0 W/m 14,6 km/h (3 Bft) 94,50 %
11.01.2017 04:00 4,9 C 5,0 C 3,6 C 97 % 9 lf 1010,0 hPa 0,0 l/m 0,00 h 0,40 h 0 W/m 16,3 km/h (3 Bft) 97,24 %
11.01.2017 05:00 4,9 C 4,7 C 3,3 C 97 % 15 lf 1009,3 hPa 0,2 l/m 0,00 h 0,13 h 0 W/m 20,5 km/h (4 Bft) 97,33 %
11.01.2017 06:00 4,8 C 4,9 C 3,3 C 96 % 5 lf 1008,2 hPa 0,0 l/m 0,00 h 0,22 h 0 W/m 19,3 km/h (3 Bft) 93,36 %
11.01.2017 07:00 5,0 C 5,0 C 3,3 C 95 % 0 lf 1007,3 hPa 0,0 l/m 0,00 h 0,03 h 0 W/m 21,3 km/h (4 Bft) 97,72 %
11.01.2017 08:00 5,3 C 5,6 C 3,9 C 92 % 0 lf 1007,3 hPa 0,0 l/m 0,00 h 0,00 h 4 W/m 22,0 km/h (4 Bft) 95,95 %
11.01.2017 09:00 5,8 C 6,1 C 4,4 C 91 % 2 lf 1006,2 hPa 0,0 l/m 0,00 h 0,23 h 16 W/m 30,3 km/h (5 Bft) 97,50 %
11.01.2017 10:00 5,9 C 5,9 C 4,4 C 93 % 7 lf 1004,9 hPa 0,0 l/m 0,00 h 0,47 h 19 W/m 33,3 km/h (5 Bft) 93,45 %
11.01.2017 11:00 6,1 C 6,0 C 4,6 C 95 % 15 lf 1003,7 hPa 0,4 l/m 0,00 h 1,00 h 38 W/m 35,8 km/h (5 Bft) 96,43 %
11.01.2017 12:00 6,3 C 6,2 C 5,0 C 97 % 15 lf 1002,7 hPa 0,4 l/m 0,00 h 0,97 h 18 W/m 35,2 km/h (5 Bft) 96,32 %
11.01.2017 13:00 6,9 C 7,0 C 5,5 C 98 % 15 lf 1002,6 hPa 0,4 l/m 0,00 h 1,00 h 24 W/m 29,9 km/h (5 Bft) 95,88 %
11.01.2017 14:00 7,3 C 7,2 C 6,0 C 98 % 15 lf 1002,6 hPa 0,4 l/m 0,00 h 0,57 h 37 W/m 25,9 km/h (4 Bft) 95,88 %
11.01.2017 15:00 7,3 C 7,1 C 5,9 C 97 % 15 lf 1003,0 hPa 0,0 l/m 0,00 h 0,13 h 36 W/m 19,6 km/h (3 Bft) 95,66 %
11.01.2017 16:00 6,8 C 5,9 C 4,5 C 92 % 11 lf 1003,9 hPa 0,6 l/m 0,00 h 0,57 h 8 W/m 32,4 km/h (5 Bft) 95,69 %
11.01.2017 17:00 5,6 C 4,9 C 3,0 C 92 % 15 lf 1004,8 hPa 0,0 l/m 0,00 h 0,03 h 0 W/m 24,6 km/h (4 Bft) 97,43 %
11.01.2017 18:00 5,3 C 4,4 C 2,6 C 91 % 13 lf 1005,6 hPa 0,0 l/m 0,00 h 0,03 h 0 W/m 22,5 km/h (4 Bft) 95,27 %
11.01.2017 19:00 5,2 C 4,7 C 2,7 C 90 % 0 lf 1006,5 hPa 0,0 l/m 0,00 h 0,00 h 0 W/m 23,8 km/h (4 Bft) 94,64 %
11.01.2017 20:00 5,3 C 4,8 C 2,7 C 88 % 0 lf 1007,2 hPa 0,0 l/m 0,00 h 0,00 h 0 W/m 26,2 km/h (4 Bft) 97,79 %
11.01.2017 21:00 5,4 C 5,4 C 2,9 C 87 % 0 lf 1007,7 hPa 0,0 l/m 0,00 h 0,00 h 0 W/m 27,2 km/h (4 Bft) 95,39 %
11.01.2017 22:00 5,1 C 5,2 C 3,0 C 85 % 0 lf 1008,1 hPa 0,0 l/m 0,00 h 0,00 h 0 W/m 23,3 km/h (4 Bft) 97,09 %
11.01.2017 23:00 5,0 C 4,9 C 2,8 C 84 % 0 lf 1008,8 hPa 0,0 l/m 0,00 h 0,00 h 0 W/m 24,6 km/h (4 Bft) 94,46 %
12.01.2017 00:00 4,7 C 4,5 C 2,5 C 84 % 0 lf 1009,6 hPa 0,0 l/m 0,00 h 0,00 h 0 W/m 21,0 km/h (4 Bft) 96,34 %
12.01.2017 01:00 4,2 C 4,1 C 2,0 C 85 % 0 lf 1009,9 hPa 0,0 l/m 0,00 h 0,00 h 0 W/m 19,4 km/h (3 Bft) 95,99 %
12.01.2017 02:00 3,9 C 4,1 C 2,1 C 86 % 0 lf 1010,1 hPa 0,0 l/m 0,00 h 0,00 h 0 W/m 22,7 km/h (4 Bft) 96,16 %
12.01.2017 03:00 3,9 C 3,9 C 1,9 C 85 % 0 lf 1010,3 hPa 0,0 l/m 0,00 h 0,00 h 0 W/m 24,3 km/h (4 Bft) 97,03 %
12.01.2017 04:00 4,0 C 4,3 C 2,3 C 85 % 0 lf 1010,4 hPa 0,0 l/m 0,00 h 0,00 h 0 W/m 26,5 km/h (4 Bft) 94,16 %
12.01.2017 05:00 4,1 C 4,4 C 2,6 C 86 % 0 lf 1010,3 hPa 0,0 l/m 0,00 h 0,00 h 0 W/m 28,6 km/h (4 Bft) 97,90 %
12.01.2017 06:00 3,9 C 3,9 C 2,2 C 86 % 0 lf 1010,1 hPa 0,0 l/m 0,00 h 0,00 h 0 W/m 27,9 km/h (4 Bft) 97,32 %
12.01.2017 07:00 3,7 C 3,9 C 2,0 C 87 % 0 lf 1010,0 hPa 0,0 l/m 0,00 h 0,00 h 0 W/m 28,5 km/h (4 Bft) 93,99 %
12.01.2017 08:00 3,8 C 4,0 C 2,2 C 87 % 0 lf 1009,8 hPa 0,0 l/m 0,00 h 0,00 h 9 W/m 28,7 km/h (4 Bft) 95,64 %
12.01.2017 09:00 4,1 C 4,6 C 2,8 C 87 % 0 lf 1009,8 hPa 0,0 l/m 0,00 h 0,00 h 44 W/m 25,6 km/h (4 Bft) 97,38 %
12.01.2017 10:00 4,3 C 5,7 C 3,0 C 87 % 0 lf 1009,9 hPa 0,0 l/m 0,30 h 0,00 h 102 W/m 22,2 km/h (4 Bft) 94,68 %
12.01.2017 11:00 5,2 C 7,3 C 4,6 C 86 % 0 lf 1009,5 hPa 0,0 l/m 0,43 h 0,00 h 132 W/m 24,8 km/h (4 Bft) 97,59 %
12.01.2017 12:00 5,7 C 7,6 C 4,9 C 85 % 0 lf 1008,1 hPa 0,0 l/m 0,33 h 0,00 h 150 W/m 25,9 km/h (4 Bft) 93,96 %
12.01.2017 13:00 6,6 C 9,6 C 5,7 C 82 % 0 lf 1007,0 hPa 0,0 l/m 0,93 h 0,00 h 210 W/m 30,0 km/h (5 Bft) 96,16 %
12.01.2017 14:00 6,8 C 8,6 C 5,9 C 81 % 0 lf 1005,5 hPa 0,0 l/m 0,93 h 0,00 h 134 W/m 20,1 km/h (4 Bft) 96,09 %
12.01.2017 15:00 6,7 C 7,3 C 5,6 C 83 % 0 lf 1003,8 hPa 0,0 l/m 0,23 h 0,00 h 58 W/m 18,8 km/h (3 Bft) 95,10 %
12.01.2017 16:00 6,5 C 6,5 C 4,8 C 83 % 0 lf 1002,2 hPa 0,0 l/m 0,00 h 0,03 h 8 W/m 20,2 km/h (4 Bft) 95,44 %
12.01.2017 17:00 6,0 C 5,3 C 3,6 C 86 % 6 lf 1000,3 hPa 0,4 l/m 0,00 h 1,00 h 0 W/m 14,7 km/h (3 Bft) 98,36 %
12.01.2017 18:00 5,2 C 4,4 C 3,0 C 91 % 15 lf 997,9 hPa 1,0 l/m 0,00 h 1,00 h 0 W/m 13,0 km/h (3 Bft) 94,24 %
12.01.2017 19:00 4,4 C 4,0 C 2,8 C 94 % 15 lf 995,2 hPa 1,4 l/m 0,00 h 1,00 h 0 W/m 20,3 km/h (4 Bft) 95,68 %
12.01.2017 20:00 4,0 C 3,7 C 2,4 C 96 % 15 lf 992,2 hPa 2,2 l/m 0,00 h 1,00 h 0 W/m 29,5 km/h (5 Bft) 97,69 %
12.01.2017 21:00 3,5 C 3,3 C 2,2 C 96 % 15 lf 988,8 hPa 2,2 l/m 0,00 h 1,00 h 0 W/m 28,8 km/h (5 Bft) 94,82 %
12.01.2017 22:00 3,0 C 2,9 C 1,7 C 96 % 15 lf 985,3 hPa 1,4 l/m 0,00 h 1,00 h 0 W/m 32,9 km/h (5 Bft) 97,02 %
12.01.2017 23:00 3,1 C 3,3 C 1,9 C 97 % 15 lf 982,1 hPa 0,0 l/m 0,00 h 0,73 h 0 W/m 28,2 km/h (4 Bft) 94,97 %
13.01.2017 00:00 3,6 C 3,6 C 2,4 C 97 % 15 lf 980,2 hPa 0,4 l/m 0,00 h 0,93 h 0 W/m 30,0 km/h (5 Bft) 93,18 %
13.01.2017 01:00 4,1 C 3,7 C 2,5 C 96 % 15 lf 979,5 hPa 0,4 l/m 0,00 h 0,90 h 0 W/m 19,7 km/h (3 Bft) 96,55 %
13.01.2017 02:00 3,4 C 3,0 C 1,8 C 96 % 15 lf 980,2 hPa 0,6 l/m 0,00 h 0,97 h 0 W/m 31,7 km/h (5 Bft) 96,78 %
13.01.2017 03:00 1,3 C 1,1 C -0,1 C 95 % 15 lf 983,7 hPa 0,2 l/m 0,00 h 0,97 h 3 W/m 36,3 km/h (5 Bft) 94,69 %
13.01.2017 04:00 0,7 C 0,7 C -0,7 C 96 % 15 lf 986,8 hPa 0,4 l/m 0,00 h 1,00 h 0 W/m 46,1 km/h (6 Bft) 96,14 %
13.01.2017 05:00 1,1 C 1,2 C -0,2 C 97 % 15 lf 990,3 hPa 0,6 l/m 0,00 h 0,97 h 0 W/m 44,0 km/h (6 Bft) 96,87 %
13.01.2017 06:00 1,8 C 1,9 C 0,6 C 97 % 15 lf 993,2 hPa 0,2 l/m 0,00 h 0,43 h 0 W/m 31,8 km/h (5 Bft) 97,30 %
13.01.2017 07:00 1,9 C 1,7 C 0,6 C 97 % 15 lf 995,3 hPa 0,0 l/m 0,00 h 0,30 h 0 W/m 28,9 km/h (5 Bft) 94,46 %
13.01.2017 08:00 1,7 C 1,4 C -0,2 C 96 % 15 lf 997,2 hPa 0,0 l/m 0,00 h 0,37 h 6 W/m 31,5 km/h (5 Bft) 95,94 %
13.01.2017 09:00 1,3 C 1,1 C -0,1 C 95 % 15 lf 998,8 hPa 0,2 l/m 0,00 h 0,40 h 20 W/m 25,7 km/h (4 Bft) 96,21 %
13.01.2017 10:00 1,4 C 1,8 C 0,4 C 96 % 15 lf 999,8 hPa 0,0 l/m 0,00 h 0,33 h 59 W/m 26,5 km/h (4 Bft) 95,51 %
13.01.2017 11:00 1,5 C 1,6 C 0,2 C 96 % 15 lf 1000,5 hPa 0,2 l/m 0,00 h 0,70 h 64 W/m 24,3 km/h (4 Bft) 98,46 %
13.01.2017 12:00 0,9 C 1,7 C 0,2 C 96 % 15 lf 1000,8 hPa 0,6 l/m 0,17 h 0,47 h 120 W/m 18,0 km/h (3 Bft) 93,12 %
13.01.2017 13:00 2,0 C 4,0 C 1,5 C 97 % 15 lf 1001,1 hPa 0,0 l/m 0,63 h 0,00 h 179 W/m 20,8 km/h (4 Bft) 96,98 %
13.01.2017 14:00 2,8 C 6,6 C 1,1 C 95 % 5 lf 1001,3 hPa 0,0 l/m 0,97 h 0,00 h 175 W/m 24,1 km/h (4 Bft) 96,91 %
13.01.2017 15:00 3,0 C 3,0 C 0,9 C 87 % 0 lf 1001,4 hPa 0,0 l/m 0,50 h 0,00 h 71 W/m 24,5 km/h (4 Bft) 93,74 %
13.01.2017 16:00 2,3 C 2,5 C 0,4 C 87 % 0 lf 1001,3 hPa 0,0 l/m 0,00 h 0,00 h 16 W/m 23,1 km/h (4 Bft) 95,95 %
13.01.2017 17:00 1,8 C 2,1 C 0,5 C 90 % 0 lf 1001,4 hPa 0,0 l/m 0,00 h 0,10 h 0 W/m 29,4 km/h (5 Bft) 98,14 %
13.01.2017 18:00 1,7 C 2,2 C 0,6 C 92 % 0 lf 1001,1 hPa 0,0 l/m 0,00 h 0,00 h 0 W/m 24,1 km/h (4 Bft) 94,43 %
13.01.2017 19:00 1,5 C 1,3 C -0,2 C 93 % 12 lf 1001,0 hPa 0,2 l/m 0,00 h 0,90 h 0 W/m 24,7 km/h (4 Bft) 96,77 %
13.01.2017 20:00 0,6 C 0,1 C -1,1 C 95 % 15 lf 1001,3 hPa 0,2 l/m 0,00 h 0,90 h 0 W/m 19,6 km/h (3 Bft) 95,94 %
13.01.2017 21:00 1,0 C 1,1 C -0,8 C 96 % 15 lf 1001,5 hPa 0,4 l/m 0,00 h 0,20 h 0 W/m 18,1 km/h (3 Bft) 94,66 %
13.01.2017 22:00 2,1 C 2,3 C 0,4 C 97 % 15 lf 1002,3 hPa 0,8 l/m 0,00 h 0,43 h 0 W/m 22,9 km/h (4 Bft) 96,91 %
13.01.2017 23:00 2,8 C 2,9 C 1,1 C 97 % 14 lf 1003,3 hPa 0,6 l/m 0,00 h 0,60 h 0 W/m 26,9 km/h (4 Bft) 96,49 %
14.01.2017 00:00 3,3 C 3,3 C 1,7 C 95 % 1 lf 1004,1 hPa 0,2 l/m 0,00 h 0,37 h 0 W/m 26,8 km/h (4 Bft) 92,43 %
14.01.2017 01:00 3,3 C 3,1 C 1,5 C 92 % 0 lf 1004,9 hPa 0,0 l/m 0,00 h 0,30 h 0 W/m 25,6 km/h (4 Bft) 96,45 %
14.01.2017 02:00 3,3 C 3,3 C 1,6 C 88 % 0 lf 1006,0 hPa 0,0 l/m 0,00 h 0,13 h 0 W/m 24,8 km/h (4 Bft) 96,93 %
14.01.2017 03:00 3,0 C 3,0 C 0,9 C 88 % 0 lf 1006,7 hPa 0,0 l/m 0,00 h 0,07 h 0 W/m 25,0 km/h (4 Bft) 95,06 %
14.01.2017 04:00 2,3 C 2,2 C 0,3 C 88 % 0 lf 1007,2 hPa 0,0 l/m 0,00 h 0,00 h 0 W/m 21,9 km/h (4 Bft) 96,58 %
14.01.2017 05:00 1,8 C 1,9 C -0,2 C 89 % 0 lf 1008,0 hPa 0,0 l/m 0,00 h 0,03 h 0 W/m 23,8 km/h (4 Bft) 94,93 %
14.01.2017 06:00 1,4 C 1,2 C -0,7 C 89 % 0 lf 1008,8 hPa 0,0 l/m 0,00 h 0,00 h 0 W/m 21,7 km/h (4 Bft) 96,77 %
14.01.2017 07:00 1,0 C 1,0 C -0,7 C 90 % 0 lf 1009,8 hPa 0,0 l/m 0,00 h 0,00 h 0 W/m 21,0 km/h (4 Bft) 95,43 %
14.01.2017 08:00 0,7 C 0,6 C -1,0 C 92 % 0 lf 1010,6 hPa 0,0 l/m 0,03 h 0,00 h 11 W/m 23,8 km/h (4 Bft) 97,91 %
14.01.2017 09:00 0,9 C 1,8 C -0,1 C 93 % 0 lf 1011,6 hPa 0,0 l/m 0,63 h 0,00 h 65 W/m 16,8 km/h (3 Bft) 94,54 %
14.01.2017 10:00 1,2 C 2,3 C 0,5 C 93 % 0 lf 1012,2 hPa 0,0 l/m 0,00 h 0,00 h 79 W/m 20,3 km/h (4 Bft) 95,45 %
14.01.2017 11:00 2,1 C 6,9 C 1,8 C 94 % 0 lf 1012,3 hPa 0,0 l/m 0,77 h 0,00 h 217 W/m 21,9 km/h (4 Bft) 98,21 %
14.01.2017 12:00 2,9 C 5,8 C 2,2 C 89 % 0 lf 1012,1 hPa 0,0 l/m 0,63 h 0,00 h 197 W/m 23,6 km/h (4 Bft) 95,44 %
14.01.2017 13:00 3,6 C 6,5 C 2,7 C 86 % 0 lf 1011,6 hPa 0,0 l/m 0,60 h 0,00 h 195 W/m 27,7 km/h (4 Bft) 94,01 %
14.01.2017 14:00 3,5 C 4,5 C 2,9 C 86 % 0 lf 1011,4 hPa 0,0 l/m 0,17 h 0,00 h 104 W/m 32,4 km/h (5 Bft) 98,62 %
14.01.2017 15:00 2,8 C 2,7 C 1,2 C 90 % 12 lf 1011,4 hPa 0,2 l/m 0,00 h 0,80 h 20 W/m 23,7 km/h (4 Bft) 95,07 %
14.01.2017 16:00 1,8 C 1,3 C 0,1 C 93 % 15 lf 1012,1 hPa 0,6 l/m 0,00 h 0,50 h 8 W/m 22,5 km/h (4 Bft) 94,56 %
14.01.2017 17:00 0,9 C 0,2 C -1,4 C 94 % 15 lf 1012,8 hPa 0,0 l/m 0,00 h 0,00 h 4 W/m 14,7 km/h (3 Bft) 97,37 %
14.01.2017 18:00 0,6 C 0,5 C -1,0 C 95 % 15 lf 1013,6 hPa 0,0 l/m 0,00 h 0,00 h 4 W/m 15,0 km/h (3 Bft) 95,15 %
14.01.2017 19:00 0,7 C 0,5 C -1,2 C 96 % 15 lf 1014,1 hPa 0,0 l/m 0,00 h 0,00 h 0 W/m 18,3 km/h (3 Bft) 96,96 %
14.01.2017 20:00 0,5 C 0,2 C -1,2 C 95 % 15 lf 1014,5 hPa 0,0 l/m 0,00 h 0,53 h 0 W/m 14,2 km/h (3 Bft) 96,04 %
14.01.2017 21:00 0,2 C -0,1 C -1,7 C 96 % 15 lf 1014,8 hPa 0,0 l/m 0,00 h 0,03 h 0 W/m 11,1 km/h (2 Bft) 93,70 %
14.01.2017 22:00 0,0 C -0,3 C -2,2 C 96 % 5 lf 1015,0 hPa 0,0 l/m 0,00 h 0,00 h 0 W/m 14,2 km/h (3 Bft) 97,67 %
14.01.2017 23:00 -0,1 C -0,5 C -2,1 C 96 % 3 lf 1015,5 hPa 0,0 l/m 0,00 h 0,00 h 0 W/m 13,6 km/h (3 Bft) 97,53 %
15.01.2017 00:00 0,0 C 0,0 C -1,6 C 97 % 14 lf 1015,9 hPa 0,0 l/m 0,00 h 0,00 h 0 W/m 13,8 km/h (3 Bft) 93,59 %
15.01.2017 01:00 0,1 C -0,0 C -1,8 C 97 % 13 lf 1016,2 hPa 0,0 l/m 0,00 h 0,00 h 0 W/m 14,0 km/h (3 Bft) 96,31 %
15.01.2017 02:00 -0,3 C -0,9 C -2,7 C 97 % 3 lf 1016,4 hPa 0,0 l/m 0,00 h 0,00 h 0 W/m 10,8 km/h (2 Bft) 95,11 %
15.01.2017 03:00 -0,5 C -0,9 C -2,5 C 97 % 4 lf 1016,8 hPa 0,0 l/m 0,00 h 0,00 h 0 W/m 12,3 km/h (3 Bft) 97,10 %
15.01.2017 04:00 -0,7 C -1,1 C -2,8 C 97 % 2 lf 1017,1 hPa 0,0 l/m 0,00 h 0,00 h 0 W/m 12,4 km/h (3 Bft) 96,69 %
15.01.2017 05:00 -0,9 C -1,4 C -3,2 C 97 % 2 lf 1017,4 hPa 0,0 l/m 0,00 h 0,00 h 0 W/m 10,8 km/h (2 Bft) 95,14 %
15.01.2017 06:00 -1,3 C -1,9 C -3,7 C 97 % 2 lf 1017,8 hPa 0,0 l/m 0,00 h 0,00 h 0 W/m 8,9 km/h (2 Bft) 95,20 %
15.01.2017 07:00 -1,6 C -2,1 C -4,0 C 97 % 1 lf 1018,3 hPa 0,0 l/m 0,00 h 0,00 h 0 W/m 9,1 km/h (2 Bft) 95,41 %
15.01.2017 08:00 -1,7 C -2,0 C -3,8 C 97 % 1 lf 1018,9 hPa 0,8 l/m 0,00 h 0,00 h 9 W/m 9,7 km/h (2 Bft) 97,12 %
15.01.2017 09:00 -1,6 C -1,4 C -3,5 C 97 % 2 lf 1019,3 hPa 0,4 l/m 0,20 h 0,00 h 49 W/m 9,6 km/h (2 Bft) 94,98 %
15.01.2017 10:00 -0,8 C 0,5 C -2,1 C 98 % 6 lf 1019,6 hPa 0,0 l/m 0,40 h 0,03 h 141 W/m 10,4 km/h (2 Bft) 95,02 %
15.01.2017 11:00 0,4 C 3,1 C -1,1 C 98 % 15 lf 1019,9 hPa 0,0 l/m 0,70 h 0,13 h 177 W/m 11,5 km/h (2 Bft) 97,44 %
15.01.2017 12:00 0,9 C 3,6 C -0,2 C 98 % 15 lf 1019,9 hPa 0,0 l/m 0,93 h 0,00 h 202 W/m 17,6 km/h (3 Bft) 95,38 %
15.01.2017 13:00 0,9 C 2,3 C 0,6 C 97 % 15 lf 1019,9 hPa 0,0 l/m 0,03 h 0,00 h 127 W/m 15,7 km/h (3 Bft) 96,56 %
15.01.2017 14:00 1,1 C 2,8 C 0,6 C 96 % 13 lf 1020,0 hPa 0,0 l/m 0,60 h 0,00 h 132 W/m 14,6 km/h (3 Bft) 95,17 %
15.01.2017 15:00 1,2 C 2,2 C 0,0 C 96 % 6 lf 1020,1 hPa 0,0 l/m 0,33 h 0,00 h 75 W/m 14,0 km/h (3 Bft) 97,51 %
15.01.2017 16:00 1,0 C 1,3 C -0,4 C 95 % 1 lf 1020,3 hPa 0,0 l/m 0,00 h 0,00 h 17 W/m 11,7 km/h (2 Bft) 94,59 %
15.01.2017 17:00 0,8 C 1,1 C -0,6 C 96 % 0 lf 1020,6 hPa 0,0 l/m 0,00 h 0,00 h 5 W/m 6,4 km/h (2 Bft) 95,86 %
15.01.2017 18:00 0,8 C 1,1 C -0,6 C 96 % 0 lf 1020,9 hPa 0,0 l/m 0,00 h 0,00 h 0 W/m 4,3 km/h (1 Bft) 97,14 %
15.01.2017 19:00 0,8 C 1,1 C -1,1 C 96 % 1 lf 1021,2 hPa 0,0 l/m 0,00 h 0,00 h 0 W/m 0,6 km/h (0 Bft) 95,24 %
15.01.2017 20:00 0,7 C 1,1 C -0,6 C 96 % 1 lf 1021,5 hPa 0,0 l/m 0,00 h 0,00 h 0 W/m 0,0 km/h (0 Bft) 97,13 %
15.01.2017 21:00 0,9 C 1,4 C -0,5 C 96 % 1 lf 1021,8 hPa 0,0 l/m 0,00 h 0,00 h 0 W/m 0,0 km/h (0 Bft) 93,85 %
15.01.2017 22:00 0,9 C 1,1 C -0,6 C 96 % 1 lf 1021,9 hPa 0,0 l/m 0,00 h 0,00 h 0 W/m 3,5 km/h (1 Bft) 98,33 %
15.01.2017 23:00 0,7 C 1,1 C -0,6 C 96 % 1 lf 1022,2 hPa 0,0 l/m 0,00 h 0,00 h 0 W/m 3,6 km/h (1 Bft) 95,95 %
Min-Datum _ 15.01.17 15.01.17 15.01.17 12.01.17 09.01.17 13.01.17 - - - - 09.01.17 13.01.17
_ Min-Zeit 07:36 06:40 07:38 13:52 10:38 01:36 - - - - 00:34 00:02
Minimum _ -1,7 C -2,2 C -4,4 C 80 % 0 lf 979,3 hPa - - - - 0,0 km/h (0 Bft) 11,76 %
Max-Datum _ 11.01.17 14.01.17 11.01.17 09.01.17 09.01.17 09.01.17 12.01.17 09.01.17 09.01.17 15.01.17 13.01.17 09.01.17
_ Max-Zeit 14:58 11:44 14:14 11:52 00:00 00:00 20:04 12:14 13:06 11:00 04:50 00:10
Maximum _ 7,5 C 11,7 C 6,1 C 100 % 15 lf 1030,2 hPa 2,2 l/m 0,03 h 0,03 h 361 W/m 71,1 km/h
NW (8 Bft)
100,00 %
Durchschnitt _ 3,0 C 3,4 C 1,6 C 94 % 6 lf 1009,7 hPa #25,6 l/m #14:06 h #37:29 h 71 W/m 18,0 km/h (3 Bft) 95,95 %
© 2017 W. Hausmann